Date,TemperatureHighF,TemperatureAvgF,TemperatureLowF,DewpointHighF,DewpointAvgF,DewpointLowF,HumidityHigh,HumidityAvg,HumidityLow,PressureMaxIn,PressureMinIn,WindSpeedMaxMPH,WindSpeedAvgMPH,GustSpeedMaxMPH,PrecipitationSumIn
2014-1-1,28,21,14,13,8,5,72,58,43,30.38,30.18,9,1,13,0.00
2014-1-2,22,12,1,15,8,-3,87,85,63,30.35,29.85,9,1,10,0.00
2014-1-3,14,5,-1,8,-2,-10,87,74,53,30.40,29.71,11,2,15,0.00
2014-1-4,27,13,-4,18,2,-10,83,63,31,30.50,30.26,7,1,13,0.00
2014-1-5,40,30,13,35,22,9,93,73,48,30.31,29.91,6,0,8,0.17
2014-1-6,58,43,27,56,40,14,97,88,59,29.91,29.27,12,2,15,0.28
2014-1-7,27,13,7,14,-4,-12,64,46,34,30.22,29.50,11,4,22,0.00
2014-1-8,21,13,5,4,-2,-8,64,53,42,30.46,30.22,10,2,15,0.00
2014-1-9,30,20,13,11,7,4,84,60,38,30.63,30.41,6,1,10,0.00
2014-1-10,36,26,11,34,23,8,92,87,75,30.59,30.26,3,0,6,0.01
2014-1-11,60,48,35,58,47,33,97,94,91,30.26,29.27,7,1,14,0.60
2014-1-12,54,43,36,52,32,25,93,67,54,29.95,29.27,12,3,16,0.04
2014-1-13,54,40,28,43,30,23,87,69,41,30.11,29.89,7,1,11,0.00
2014-1-14,49,47,42,47,44,41,95,91,85,29.88,29.60,3,0,9,0.73
2014-1-15,48,39,31,40,35,30,96,87,67,30.01,29.75,3,0,10,0.00
2014-1-16,40,36,31,37,34,30,96,94,88,29.92,29.82,1,0,4,0.01
2014-1-17,46,38,29,36,29,22,94,74,39,29.97,29.89,6,1,10,0.00
2014-1-18,37,33,29,35,30,25,95,91,84,29.91,29.60,3,0,7,0.26
2014-1-19,34,31,28,31,26,22,95,82,67,29.71,29.53,10,2,18,0.01
2014-1-20,41,34,25,28,23,10,77,67,50,29.85,29.49,11,2,18,0.15
2014-1-21,24,15,10,10,3,-3,87,63,43,30.05,29.86,6,-10,11,0.00
2014-1-22,18,11,6,6,-2,-6,84,59,41,29.89,29.64,8,2,17,0.00
2014-1-23,22,11,2,0,-4,-7,66,52,35,30.14,29.89,7,1,12,0.00
2014-1-24,18,11,5,-1,-4,-7,62,51,33,30.26,30.04,11,2,14,0.00
2014-1-25,37,26,13,26,16,0,84,67,54,30.03,29.33,9,2,21,0.01
2014-1-26,24,19,14,17,4,-6,76,53,36,29.88,29.34,11,2,17,0.00
2014-1-27,45,29,19,37,17,2,89,64,34,29.98,29.52,11,2,20,0.04
2014-1-28,19,16,11,2,-6,-12,48,38,29,30.29,29.99,8,2,15,0.00
2014-1-29,26,19,14,6,-2,-8,68,43,23,30.21,29.96,9,1,14,0.00
2014-1-30,32,20,11,11,4,-4,72,50,33,30.43,30.18,6,1,11,0.00
2014-1-31,41,32,19,23,17,10,83,57,34,30.19,30.00,9,1,11,0.00